Portada
METAR-TAF:

METAR-TAF

Aeroports :

Curaçao, Antilles Neerlandeses

latitud: 12-12N, longitud: 068-58W, altitud: 9 m

Observació

L'informe es va fer fa 20 minuts, a les 07:00 UTC
Vent 12 kt del Est
Temperatura 28°C
Humitat 74%
Pressió 1011 hPa
Visibilitat 10 km o més
Escasses núvols a una alçada de 2100 ft

METAR: TNCC 250700Z AUTO 10012KT 9999 FEW021 28/23 Q1011 NOSIG

Hora: 03:20 (07:20 UTC)

Pronòstic

L'informe es va fer fa 2 hores i 5 minuts, a les 05:15 UTC
Pronòstic vàlid del 25 a les 06 UTC al 26 a les 06 UTC
Vent 12 kt del Est
Visibilitat 10 km o més
Núvols disperses a una alçada de 1800 ft
Temporalment
l' 25 a les 06 UTC al 25 a les 20 UTC
Visibilitat: 7000 m
Cel ennuvolat a una alçada de 1500 ft
Cel ennuvolat a una alçada de 4000 ft
xàfecs de pluja

TAF: TNCC 250515Z 2506/2606 10012KT 9999 SCT018 TEMPO 2506/2520 7000 SHRA BKN015 BKN040

Observacions i pronòstics meteorològics de més de 4000 aeroports (METAR i TAF).

Les estacions disponibles són els punts grocs i vermells al mapa.

Posi el ratolí al punt desitjat per veure el nom de l'estació.

Feu clic per veure les observacions i els pronòstics meteorològics.

Per canviar el mapa: feu clic els botons verds amb una creu de color negre per apropar; al botó verd amb un guió per allunyar la imatge; o en les fletxes verdes per a mapes adjacents.


METAR-TAF: